Time;durP1;ratioP1;P1;durP2;ratioP2;P2;SDS_P1;SDS_P2;PMS_P1;PMS_P2;Temp;Humidity;BMP_temperature;BMP_pressure;BME280_temperature;BME280_humidity;BME280_pressure;Samples;Min_cycle;Max_cycle;Signal;HPM_P1;HPM_P2
2023/08/09 12:31:29;;;;;;;53.67;30.63;;;;;;;;;;5073152;27;20428;-63
2023/08/09 12:33:55;;;;;;;50.03;31.08;;;;;;;;;;5054162;28;20048;-64
2023/08/09 12:36:22;;;;;;;55.67;32.38;;;;;;;;;;5010277;28;20084;-65
2023/08/09 12:38:49;;;;;;;55.13;34.58;;;;;;;;;;5011283;28;20046;-65
2023/08/09 12:41:16;;;;;;;56.30;33.00;;;;;;;;;;5010443;28;20038;-65
2023/08/09 12:43:42;;;;;;;62.35;34.58;;;;;;;;;;5012278;28;20046;-63
2023/08/09 12:46:09;;;;;;;57.65;35.78;;;;;;;;;;5011480;28;20046;-67
2023/08/09 12:48:35;;;;;;;58.00;35.40;;;;;;;;;;5011836;28;20097;-64
2023/08/09 12:51:02;;;;;;;64.45;37.97;;;;;;;;;;5009973;28;20049;-64
2023/08/09 12:53:29;;;;;;;63.55;38.42;;;;;;;;;;5010144;28;20057;-65
2023/08/09 12:55:56;;;;;;;60.47;36.25;;;;;;;;;;5008384;28;20194;-64
2023/08/09 12:58:22;;;;;;;68.97;39.88;;;;;;;;;;5012035;28;20042;-64
2023/08/09 13:00:49;;;;;;;65.07;37.60;;;;;;;;;;5010887;28;20072;-65
2023/08/09 13:03:16;;;;;;;65.10;38.47;;;;;;;;;;5009621;28;20187;-64
2023/08/09 13:05:43;;;;;;;67.95;40.58;;;;;;;;;;5005573;28;20053;-65
2023/08/09 13:08:11;;;;;;;62.72;38.90;;;;;;;;;;5026566;28;20142;-65
2023/08/09 13:10:38;;;;;;;74.53;40.83;;;;;;;;;;5030805;28;20919;-66
2023/08/09 13:13:05;;;;;;;72.93;42.22;;;;;;;;;;5030860;28;20033;-65
2023/08/09 13:15:31;;;;;;;76.50;43.38;;;;;;;;;;5029838;28;20037;-63
2023/08/09 13:17:58;;;;;;;77.20;44.42;;;;;;;;;;5033054;28;20033;-66
2023/08/09 13:20:26;;;;;;;77.47;42.47;;;;;;;;;;5030677;28;20041;-65
2023/08/09 13:22:53;;;;;;;81.65;43.47;;;;;;;;;;5028805;28;20076;-65
2023/08/09 13:25:20;;;;;;;72.40;43.10;;;;;;;;;;5031393;28;20120;-65
2023/08/09 13:27:46;;;;;;;71.35;43.58;;;;;;;;;;5028882;28;20091;-66
2023/08/09 13:30:13;;;;;;;64.90;40.70;;;;;;;;;;5034602;28;20564;-64
2023/08/09 13:32:40;;;;;;;64.85;41.85;;;;;;;;;;5039404;28;20037;-64
2023/08/09 13:35:07;;;;;;;67.18;41.50;;;;;;;;;;5035093;28;21182;-64
2023/08/09 13:37:35;;;;;;;66.78;41.30;;;;;;;;;;5029070;28;20079;-65
2023/08/09 13:40:02;;;;;;;61.05;40.95;;;;;;;;;;5031441;28;20384;-65
2023/08/09 13:42:29;;;;;;;64.20;39.78;;;;;;;;;;5017887;28;20034;-64
2023/08/09 13:44:55;;;;;;;62.35;39.47;;;;;;;;;;5014693;28;20053;-67
2023/08/09 13:47:41;;;;;;;65.80;41.20;;;;;;;;;;5100035;22;20033;-65
2023/08/09 13:50:23;;;;;;;65.82;40.85;;;;;;;;;;5076882;28;20057;-64
2023/08/09 13:53:31;;;;;;;65.60;40.97;;;;;;;;;;5048050;28;20036;-65
2023/08/09 14:07:44;;;;;;;59.38;39.05;;;;;;;;;;5073853;28;20043;-64
2023/08/09 14:10:51;;;;;;;58.03;37.90;;;;;;;;;;5163398;23;20060;-65
2023/08/09 14:13:49;;;;;;;61.20;36.75;;;;;;;;;;5027327;28;20053;-64
2023/08/09 14:16:39;;;;;;;56.55;37.20;;;;;;;;;;4721332;26;20036;-64
2023/08/09 14:19:56;;;;;;;53.35;35.10;;;;;;;;;;5083890;28;20048;-65
2023/08/09 14:22:48;;;;;;;56.33;36.85;;;;;;;;;;4996814;28;20030;-65
2023/08/09 14:25:26;;;;;;;58.70;35.08;;;;;;;;;;5016427;28;20061;-65
2023/08/09 14:27:53;;;;;;;48.97;34.15;;;;;;;;;;5001788;28;20046;-65
2023/08/09 14:30:42;;;;;;;53.88;34.22;;;;;;;;;;4949261;28;20034;-64
2023/08/09 14:33:14;;;;;;;50.25;32.80;;;;;;;;;;4991041;28;20073;-64
2023/08/09 14:35:49;;;;;;;47.40;32.58;;;;;;;;;;4927511;29;20033;-64
2023/08/09 14:38:22;;;;;;;48.13;33.08;;;;;;;;;;4919419;29;20060;-65
2023/08/09 14:41:14;;;;;;;51.40;33.15;;;;;;;;;;4919801;29;20090;-67
2023/08/09 14:43:58;;;;;;;48.25;32.78;;;;;;;;;;4870621;29;20071;-66
2023/08/09 14:46:59;;;;;;;46.45;30.98;;;;;;;;;;4913939;29;20025;-65
2023/08/09 14:49:31;;;;;;;45.38;30.92;;;;;;;;;;4898508;29;20044;-65
2023/08/09 14:52:23;;;;;;;45.57;32.20;;;;;;;;;;4831100;29;20043;-65
2023/08/09 14:55:14;;;;;;;49.55;31.88;;;;;;;;;;4774364;29;20085;-65
2023/08/09 14:58:24;;;;;;;47.45;31.58;;;;;;;;;;4750083;29;20023;-65
2023/08/09 15:01:27;;;;;;;43.78;30.45;;;;;;;;;;4789318;29;20044;-65
2023/08/09 15:04:09;;;;;;;45.88;29.45;;;;;;;;;;4745193;30;20192;-65
2023/08/09 15:09:36;;;;;;;46.30;31.05;;;;;;;;;;4777654;29;19926;-64
2023/08/09 15:19:01;;;;;;;41.75;28.40;;;;;;;;;;4762346;30;20105;-63
2023/08/09 15:22:25;;;;;;;41.60;28.67;;;;;;;;;;4819709;29;20053;-64
2023/08/09 15:25:21;;;;;;;41.80;29.02;;;;;;;;;;4835455;29;20034;-64
2023/08/09 15:31:20;;;;;;;41.15;28.33;;;;;;;;;;4771364;29;20108;-64
2023/08/09 15:34:06;;;;;;;39.30;27.20;;;;;;;;;;4708665;30;20037;-64
2023/08/09 15:36:33;;;;;;;37.05;26.05;;;;;;;;;;4701258;30;20045;-63
2023/08/09 15:39:00;;;;;;;37.90;26.08;;;;;;;;;;4720562;30;20114;-64
2023/08/09 15:41:26;;;;;;;38.97;26.95;;;;;;;;;;4712455;30;20049;-64
2023/08/09 15:43:53;;;;;;;38.38;25.95;;;;;;;;;;4715257;30;20049;-64
2023/08/09 15:46:19;;;;;;;39.28;26.15;;;;;;;;;;4721259;30;20048;-65
2023/08/09 15:48:46;;;;;;;37.58;25.60;;;;;;;;;;4732547;29;20052;-65
2023/08/09 15:51:14;;;;;;;38.83;25.88;;;;;;;;;;4755669;30;20122;-64
2023/08/09 15:53:42;;;;;;;39.17;27.02;;;;;;;;;;4801239;29;20050;-65
2023/08/09 15:56:08;;;;;;;37.38;26.10;;;;;;;;;;4800779;29;20470;-64
2023/08/09 15:58:57;;;;;;;41.20;27.27;;;;;;;;;;4827147;29;20046;-64
2023/08/09 16:01:24;;;;;;;35.90;25.20;;;;;;;;;;4863243;29;20164;-65
2023/08/09 16:03:52;;;;;;;39.78;25.67;;;;;;;;;;4874509;29;20099;-65
2023/08/09 16:06:18;;;;;;;36.10;25.02;;;;;;;;;;4909929;29;20039;-65
2023/08/09 16:08:45;;;;;;;33.92;24.10;;;;;;;;;;4944559;28;20065;-65
2023/08/09 16:11:14;;;;;;;36.78;25.42;;;;;;;;;;4998406;28;20047;-65
2023/08/09 16:13:54;;;;;;;40.63;26.33;;;;;;;;;;4966478;28;20040;-65
2023/08/09 16:17:03;;;;;;;34.75;24.75;;;;;;;;;;4951996;28;20015;-65
2023/08/09 16:20:14;;;;;;;34.60;23.48;;;;;;;;;;4876548;29;20049;-65
2023/08/09 16:35:16;;;;;;;30.90;20.80;;;;;;;;;;4996140;28;20037;-63
2023/08/09 16:38:22;;;;;;;27.42;18.90;;;;;;;;;;4981915;28;20033;-63
2023/08/09 16:41:24;;;;;;;26.90;19.52;;;;;;;;;;4927167;29;20144;-64
2023/08/09 16:43:52;;;;;;;30.70;19.30;;;;;;;;;;4944533;29;20058;-63
2023/08/09 16:46:50;;;;;;;28.88;18.80;;;;;;;;;;4908138;29;20036;-63
2023/08/09 16:49:43;;;;;;;26.48;19.67;;;;;;;;;;4905846;29;20040;-64
2023/08/09 16:56:03;;;;;;;29.08;18.88;;;;;;;;;;4834904;29;20066;-62
2023/08/09 17:02:10;;;;;;;27.85;19.60;;;;;;;;;;4829396;29;20080;-64
2023/08/09 17:05:00;;;;;;;25.95;19.08;;;;;;;;;;4778883;29;20035;-63
2023/08/09 17:07:49;;;;;;;24.80;17.38;;;;;;;;;;4719272;30;20082;-63
2023/08/09 17:10:57;;;;;;;28.27;19.60;;;;;;;;;;4706591;30;20052;-63
2023/08/09 17:13:48;;;;;;;23.50;17.08;;;;;;;;;;4724651;30;20126;-63
2023/08/09 17:22:54;;;;;;;25.02;17.77;;;;;;;;;;4752191;30;20931;-64
2023/08/09 17:25:52;;;;;;;27.27;18.63;;;;;;;;;;5448471;22;20040;-63
2023/08/09 17:35:17;;;;;;;23.15;17.40;;;;;;;;;;5081559;28;20083;-63
2023/08/09 17:37:44;;;;;;;26.65;17.88;;;;;;;;;;5000050;28;20153;-63
2023/08/09 17:40:10;;;;;;;25.83;17.98;;;;;;;;;;5076133;28;20121;-63
2023/08/09 17:42:42;;;;;;;26.75;18.23;;;;;;;;;;5076038;28;20028;-63
2023/08/09 17:45:09;;;;;;;26.15;17.25;;;;;;;;;;5056985;28;20052;-62
2023/08/09 17:47:36;;;;;;;23.85;16.05;;;;;;;;;;5065673;28;20036;-59
